Terminal Aerodrome Forecast
Issued by NWS Billings, MT

Home | Current Version | Previous Version | Text Only | Print | Product List | Glossary On
Versions: 1 2 3 4 5 6 7 8 9 10 11 12 13 14 15 16 17 18 19 20 21 22 23 24 25 26 27 28
646
FTUS45 KBYZ 060526
TAFBIL
TAF
KBIL 060526Z 0606/0706 31005KT P6SM VCSH SCT025 BKN070 OVC090
      TEMPO 0606/0609 2SM -SN BR BKN015 OVC025
     FM061100 06005KT P6SM BKN020
     FM061600 07007KT P6SM SCT025 BKN050=

USA.gov is the U.S. government's official web portal to all federal, state and local government web resources and services.